sensor_id;sensor_type;location;lat;lon;timestamp;pressure;altitude;pressure_sealevel;temperature;humidity
72124;BME280;63818;37.134;-8.548;2023-02-25T00:01:15;100830.0;;;12.4;63.9
72124;BME280;63818;37.134;-8.548;2023-02-25T00:06:06;100822.1;;;12.3;63.5
72124;BME280;63818;37.134;-8.548;2023-02-25T00:10:57;100814.8;;;12.4;63.4
72124;BME280;63818;37.134;-8.548;2023-02-25T00:15:43;100809.1;;;12.4;62.7
72124;BME280;63818;37.134;-8.548;2023-02-25T00:20:37;100809.5;;;12.4;62.8
72124;BME280;63818;37.134;-8.548;2023-02-25T00:25:23;100815.7;;;12.4;62.4
72124;BME280;63818;37.134;-8.548;2023-02-25T00:30:10;100813.6;;;12.4;62.5
72124;BME280;63818;37.134;-8.548;2023-02-25T00:34:56;100813.7;;;12.5;62.2
72124;BME280;63818;37.134;-8.548;2023-02-25T00:39:47;100834.1;;;12.4;62.7
72124;BME280;63818;37.134;-8.548;2023-02-25T00:44:33;100843.5;;;12.4;64.2
72124;BME280;63818;37.134;-8.548;2023-02-25T00:49:19;100827.8;;;12.3;64.8
72124;BME280;63818;37.134;-8.548;2023-02-25T00:54:08;100818.2;;;12.1;65.3
72124;BME280;63818;37.134;-8.548;2023-02-25T00:58:54;100807.6;;;12.0;66.3
72124;BME280;63818;37.134;-8.548;2023-02-25T01:03:40;100793.3;;;12.1;65.4
72124;BME280;63818;37.134;-8.548;2023-02-25T01:08:25;100789.5;;;12.1;66.0
72124;BME280;63818;37.134;-8.548;2023-02-25T01:13:24;100800.8;;;12.1;66.2
72124;BME280;63818;37.134;-8.548;2023-02-25T01:18:13;100789.7;;;12.1;65.8
72124;BME280;63818;37.134;-8.548;2023-02-25T01:22:58;100785.0;;;12.1;65.7
72124;BME280;63818;37.134;-8.548;2023-02-25T01:27:49;100777.7;;;12.1;66.2
72124;BME280;63818;37.134;-8.548;2023-02-25T01:32:35;100786.2;;;12.1;66.0
72124;BME280;63818;37.134;-8.548;2023-02-25T01:37:26;100793.0;;;12.2;65.8
72124;BME280;63818;37.134;-8.548;2023-02-25T01:42:15;100810.6;;;12.1;66.2
72124;BME280;63818;37.134;-8.548;2023-02-25T01:47:01;100804.4;;;11.9;66.9
72124;BME280;63818;37.134;-8.548;2023-02-25T01:51:52;100798.5;;;11.9;67.3
72124;BME280;63818;37.134;-8.548;2023-02-25T01:56:43;100781.9;;;12.0;67.2
72124;BME280;63818;37.134;-8.548;2023-02-25T02:01:38;100777.7;;;11.9;67.0
72124;BME280;63818;37.134;-8.548;2023-02-25T02:06:29;100765.8;;;12.0;67.3
72124;BME280;63818;37.134;-8.548;2023-02-25T02:11:17;100746.5;;;12.0;67.0
72124;BME280;63818;37.134;-8.548;2023-02-25T02:16:15;100750.1;;;12.0;67.1
72124;BME280;63818;37.134;-8.548;2023-02-25T02:21:14;100742.3;;;12.0;67.0
72124;BME280;63818;37.134;-8.548;2023-02-25T02:26:34;100738.7;;;12.0;67.7
72124;BME280;63818;37.134;-8.548;2023-02-25T02:31:31;100728.1;;;12.1;68.5
72124;BME280;63818;37.134;-8.548;2023-02-25T02:36:28;100723.2;;;12.1;68.7
72124;BME280;63818;37.134;-8.548;2023-02-25T02:41:23;100723.7;;;12.1;68.4
72124;BME280;63818;37.134;-8.548;2023-02-25T02:46:18;100716.7;;;12.1;68.2
72124;BME280;63818;37.134;-8.548;2023-02-25T02:51:08;100695.8;;;12.1;68.3
72124;BME280;63818;37.134;-8.548;2023-02-25T02:56:04;100684.2;;;12.0;68.6
72124;BME280;63818;37.134;-8.548;2023-02-25T03:00:56;100682.2;;;12.0;69.3
72124;BME280;63818;37.134;-8.548;2023-02-25T03:05:47;100679.1;;;11.9;69.6
72124;BME280;63818;37.134;-8.548;2023-02-25T03:10:35;100688.0;;;11.9;69.5
72124;BME280;63818;37.134;-8.548;2023-02-25T03:15:21;100680.6;;;11.9;69.4
72124;BME280;63818;37.134;-8.548;2023-02-25T03:20:11;100672.6;;;11.9;69.6
72124;BME280;63818;37.134;-8.548;2023-02-25T03:25:02;100668.4;;;11.9;69.6
72124;BME280;63818;37.134;-8.548;2023-02-25T03:29:53;100673.5;;;11.8;69.6
72124;BME280;63818;37.134;-8.548;2023-02-25T03:34:44;100668.8;;;11.7;70.0
72124;BME280;63818;37.134;-8.548;2023-02-25T03:39:36;100669.9;;;11.6;69.6
72124;BME280;63818;37.134;-8.548;2023-02-25T03:44:26;100659.6;;;11.6;69.4
72124;BME280;63818;37.134;-8.548;2023-02-25T03:49:20;100644.4;;;11.6;67.4
72124;BME280;63818;37.134;-8.548;2023-02-25T03:54:08;100637.5;;;11.6;66.9
72124;BME280;63818;37.134;-8.548;2023-02-25T03:58:54;100631.8;;;11.6;66.2
72124;BME280;63818;37.134;-8.548;2023-02-25T04:03:43;100627.2;;;11.6;65.7
72124;BME280;63818;37.134;-8.548;2023-02-25T04:08:33;100626.2;;;11.6;65.9
72124;BME280;63818;37.134;-8.548;2023-02-25T04:13:21;100626.2;;;11.6;67.2
72124;BME280;63818;37.134;-8.548;2023-02-25T04:18:07;100632.7;;;11.6;68.2
72124;BME280;63818;37.134;-8.548;2023-02-25T04:22:54;100637.5;;;11.6;69.3
72124;BME280;63818;37.134;-8.548;2023-02-25T04:27:40;100640.5;;;11.6;69.9
72124;BME280;63818;37.134;-8.548;2023-02-25T04:32:29;100645.4;;;11.5;69.9
72124;BME280;63818;37.134;-8.548;2023-02-25T04:37:18;100644.4;;;11.5;70.4
72124;BME280;63818;37.134;-8.548;2023-02-25T04:42:04;100644.1;;;11.5;70.2
72124;BME280;63818;37.134;-8.548;2023-02-25T04:46:52;100627.0;;;11.5;69.9
72124;BME280;63818;37.134;-8.548;2023-02-25T04:51:39;100630.0;;;11.4;70.0
72124;BME280;63818;37.134;-8.548;2023-02-25T04:56:30;100635.7;;;11.4;69.8
72124;BME280;63818;37.134;-8.548;2023-02-25T05:01:16;100635.4;;;11.4;69.6
72124;BME280;63818;37.134;-8.548;2023-02-25T05:06:04;100630.5;;;11.4;69.3
72124;BME280;63818;37.134;-8.548;2023-02-25T05:10:52;100648.8;;;11.4;69.5
72124;BME280;63818;37.134;-8.548;2023-02-25T05:15:38;100648.7;;;11.3;69.4
72124;BME280;63818;37.134;-8.548;2023-02-25T05:20:24;100641.5;;;11.3;69.0
72124;BME280;63818;37.134;-8.548;2023-02-25T05:25:10;100624.3;;;11.2;68.3
72124;BME280;63818;37.134;-8.548;2023-02-25T05:29:56;100624.1;;;11.2;68.4
72124;BME280;63818;37.134;-8.548;2023-02-25T05:34:42;100625.2;;;11.2;68.6
72124;BME280;63818;37.134;-8.548;2023-02-25T05:39:28;100616.2;;;11.2;68.9
72124;BME280;63818;37.134;-8.548;2023-02-25T05:44:14;100615.4;;;11.2;69.0
72124;BME280;63818;37.134;-8.548;2023-02-25T05:49:07;100619.5;;;11.2;69.4
72124;BME280;63818;37.134;-8.548;2023-02-25T05:53:58;100633.0;;;11.2;69.3
72124;BME280;63818;37.134;-8.548;2023-02-25T05:58:44;100631.9;;;11.2;69.5
72124;BME280;63818;37.134;-8.548;2023-02-25T06:03:30;100626.3;;;11.2;69.1
72124;BME280;63818;37.134;-8.548;2023-02-25T06:08:18;100626.5;;;11.1;69.3
72124;BME280;63818;37.134;-8.548;2023-02-25T06:13:04;100630.7;;;11.0;68.7
72124;BME280;63818;37.134;-8.548;2023-02-25T06:17:50;100631.5;;;11.0;69.4
72124;BME280;63818;37.134;-8.548;2023-02-25T06:22:39;100624.1;;;11.1;68.7
72124;BME280;63818;37.134;-8.548;2023-02-25T06:27:26;100627.8;;;11.1;68.8
72124;BME280;63818;37.134;-8.548;2023-02-25T06:32:14;100620.8;;;11.1;69.0
72124;BME280;63818;37.134;-8.548;2023-02-25T06:37:01;100621.4;;;11.1;69.1
72124;BME280;63818;37.134;-8.548;2023-02-25T06:41:50;100627.6;;;11.1;69.3
72124;BME280;63818;37.134;-8.548;2023-02-25T06:46:39;100623.6;;;11.1;69.5
72124;BME280;63818;37.134;-8.548;2023-02-25T06:51:31;100638.9;;;11.0;69.6
72124;BME280;63818;37.134;-8.548;2023-02-25T06:56:17;100636.4;;;11.0;69.5
72124;BME280;63818;37.134;-8.548;2023-02-25T07:01:09;100638.5;;;11.0;69.5
72124;BME280;63818;37.134;-8.548;2023-02-25T07:05:56;100638.5;;;11.0;69.5
72124;BME280;63818;37.134;-8.548;2023-02-25T07:10:42;100644.4;;;10.9;69.7
72124;BME280;63818;37.134;-8.548;2023-02-25T07:15:28;100648.5;;;10.9;69.6
72124;BME280;63818;37.134;-8.548;2023-02-25T07:20:17;100648.5;;;10.9;70.2
72124;BME280;63818;37.134;-8.548;2023-02-25T07:25:03;100650.6;;;10.9;70.2
72124;BME280;63818;37.134;-8.548;2023-02-25T07:29:49;100652.7;;;11.0;70.0
72124;BME280;63818;37.134;-8.548;2023-02-25T07:34:38;100651.7;;;10.9;70.1
72124;BME280;63818;37.134;-8.548;2023-02-25T07:39:24;100660.1;;;10.9;70.6
72124;BME280;63818;37.134;-8.548;2023-02-25T07:44:10;100662.2;;;10.9;70.7
72124;BME280;63818;37.134;-8.548;2023-02-25T07:48:56;100668.5;;;11.0;70.6
72124;BME280;63818;37.134;-8.548;2023-02-25T07:53:43;100673.6;;;11.0;70.7
72124;BME280;63818;37.134;-8.548;2023-02-25T07:58:29;100676.7;;;11.0;70.8
72124;BME280;63818;37.134;-8.548;2023-02-25T08:03:15;100673.6;;;11.0;70.5
72124;BME280;63818;37.134;-8.548;2023-02-25T08:08:04;100683.5;;;11.0;70.4
72124;BME280;63818;37.134;-8.548;2023-02-25T08:12:51;100672.9;;;11.0;70.3
72124;BME280;63818;37.134;-8.548;2023-02-25T08:17:48;100680.7;;;11.0;69.9
72124;BME280;63818;37.134;-8.548;2023-02-25T08:22:34;100688.9;;;11.1;70.2
72124;BME280;63818;37.134;-8.548;2023-02-25T08:27:20;100683.4;;;11.1;70.2
72124;BME280;63818;37.134;-8.548;2023-02-25T08:32:06;100685.0;;;11.1;70.2
72124;BME280;63818;37.134;-8.548;2023-02-25T08:36:54;100683.4;;;11.2;70.5
72124;BME280;63818;37.134;-8.548;2023-02-25T08:41:44;100685.0;;;11.2;70.8
72124;BME280;63818;37.134;-8.548;2023-02-25T08:46:31;100690.6;;;11.3;71.1
72124;BME280;63818;37.134;-8.548;2023-02-25T08:51:20;100696.0;;;11.3;71.1
72124;BME280;63818;37.134;-8.548;2023-02-25T08:56:08;100694.7;;;11.4;71.5
72124;BME280;63818;37.134;-8.548;2023-02-25T09:00:54;100696.8;;;11.5;71.3
72124;BME280;63818;37.134;-8.548;2023-02-25T09:05:51;100690.8;;;11.6;71.5
72124;BME280;63818;37.134;-8.548;2023-02-25T09:10:38;100697.3;;;11.7;70.9
72124;BME280;63818;37.134;-8.548;2023-02-25T09:15:24;100697.2;;;11.8;70.9
72124;BME280;63818;37.134;-8.548;2023-02-25T09:20:10;100702.0;;;11.8;70.8
72124;BME280;63818;37.134;-8.548;2023-02-25T09:25:05;100709.5;;;11.9;71.2
72124;BME280;63818;37.134;-8.548;2023-02-25T09:29:53;100707.2;;;11.9;71.7
72124;BME280;63818;37.134;-8.548;2023-02-25T09:34:41;100708.0;;;11.9;71.3
72124;BME280;63818;37.134;-8.548;2023-02-25T09:39:27;100713.5;;;11.9;71.8
72124;BME280;63818;37.134;-8.548;2023-02-25T09:44:22;100721.9;;;12.0;71.8
72124;BME280;63818;37.134;-8.548;2023-02-25T09:49:14;100724.0;;;12.1;72.0
72124;BME280;63818;37.134;-8.548;2023-02-25T09:54:12;100714.6;;;12.1;72.5
72124;BME280;63818;37.134;-8.548;2023-02-25T09:59:00;100717.5;;;12.2;72.4
72124;BME280;63818;37.134;-8.548;2023-02-25T10:03:51;100716.2;;;12.3;72.4
72124;BME280;63818;37.134;-8.548;2023-02-25T10:08:49;100722.5;;;12.4;72.6
72124;BME280;63818;37.134;-8.548;2023-02-25T10:13:42;100715.9;;;12.2;72.4
72124;BME280;63818;37.134;-8.548;2023-02-25T10:18:39;100715.6;;;12.3;72.9
72124;BME280;63818;37.134;-8.548;2023-02-25T10:23:39;100711.6;;;12.4;72.9
72124;BME280;63818;37.134;-8.548;2023-02-25T10:28:30;100703.8;;;12.4;72.9
72124;BME280;63818;37.134;-8.548;2023-02-25T10:33:18;100710.3;;;12.4;72.7
72124;BME280;63818;37.134;-8.548;2023-02-25T10:38:04;100709.8;;;12.4;72.5
72124;BME280;63818;37.134;-8.548;2023-02-25T10:42:52;100714.8;;;12.3;72.3
72124;BME280;63818;37.134;-8.548;2023-02-25T10:47:40;100707.6;;;12.4;72.1
72124;BME280;63818;37.134;-8.548;2023-02-25T10:52:29;100722.4;;;12.4;72.2
72124;BME280;63818;37.134;-8.548;2023-02-25T10:57:21;100718.6;;;12.5;71.8
72124;BME280;63818;37.134;-8.548;2023-02-25T11:02:19;100709.5;;;12.6;71.9
72124;BME280;63818;37.134;-8.548;2023-02-25T11:12:18;100720.5;;;12.7;72.0
72124;BME280;63818;37.134;-8.548;2023-02-25T11:21:57;100708.8;;;12.8;69.7
72124;BME280;63818;37.134;-8.548;2023-02-25T11:26:45;100709.6;;;12.8;69.1
72124;BME280;63818;37.134;-8.548;2023-02-25T11:31:35;100698.1;;;12.9;69.7
72124;BME280;63818;37.134;-8.548;2023-02-25T11:36:32;100695.1;;;12.9;68.0
72124;BME280;63818;37.134;-8.548;2023-02-25T11:41:21;100696.1;;;12.9;68.0
72124;BME280;63818;37.134;-8.548;2023-02-25T11:46:20;100698.2;;;13.0;68.5
72124;BME280;63818;37.134;-8.548;2023-02-25T11:51:14;100697.5;;;13.0;68.6
72124;BME280;63818;37.134;-8.548;2023-02-25T11:56:11;100690.3;;;13.0;68.0
72124;BME280;63818;37.134;-8.548;2023-02-25T12:01:02;100679.2;;;13.0;67.7
72124;BME280;63818;37.134;-8.548;2023-02-25T12:05:55;100677.8;;;13.2;67.9
72124;BME280;63818;37.134;-8.548;2023-02-25T12:20:28;100656.9;;;13.2;68.3
72124;BME280;63818;37.134;-8.548;2023-02-25T12:25:19;100648.1;;;13.4;69.1
72124;BME280;63818;37.134;-8.548;2023-02-25T12:30:35;100638.8;;;13.3;68.8
72124;BME280;63818;37.134;-8.548;2023-02-25T12:35:36;100635.6;;;13.3;69.1
72124;BME280;63818;37.134;-8.548;2023-02-25T12:40:36;100619.7;;;13.4;69.2
72124;BME280;63818;37.134;-8.548;2023-02-25T12:45:32;100615.7;;;13.4;69.1
72124;BME280;63818;37.134;-8.548;2023-02-25T12:50:33;100599.2;;;13.5;69.1
72124;BME280;63818;37.134;-8.548;2023-02-25T13:01:32;100600.3;;;13.7;69.7
72124;BME280;63818;37.134;-8.548;2023-02-25T13:06:37;100582.1;;;13.8;69.4
72124;BME280;63818;37.134;-8.548;2023-02-25T13:11:37;100581.0;;;13.9;69.7
72124;BME280;63818;37.134;-8.548;2023-02-25T13:16:51;100563.1;;;13.8;69.8
72124;BME280;63818;37.134;-8.548;2023-02-25T13:21:53;100565.1;;;13.8;69.8
72124;BME280;63818;37.134;-8.548;2023-02-25T13:27:01;100559.9;;;13.7;69.8
72124;BME280;63818;37.134;-8.548;2023-02-25T13:31:56;100554.8;;;13.7;69.4
72124;BME280;63818;37.134;-8.548;2023-02-25T13:37:22;100556.6;;;13.6;70.0
72124;BME280;63818;37.134;-8.548;2023-02-25T13:42:29;100550.3;;;13.6;70.8
72124;BME280;63818;37.134;-8.548;2023-02-25T13:47:30;100543.5;;;13.6;71.0
72124;BME280;63818;37.134;-8.548;2023-02-25T13:52:34;100537.7;;;13.6;71.1
72124;BME280;63818;37.134;-8.548;2023-02-25T13:57:38;100531.2;;;13.6;71.5
72124;BME280;63818;37.134;-8.548;2023-02-25T14:02:33;100537.0;;;13.8;72.0
72124;BME280;63818;37.134;-8.548;2023-02-25T14:09:36;100535.7;;;13.8;70.9
72124;BME280;63818;37.134;-8.548;2023-02-25T14:14:32;100530.4;;;14.0;69.6
72124;BME280;63818;37.134;-8.548;2023-02-25T14:19:37;100532.7;;;14.2;69.6
72124;BME280;63818;37.134;-8.548;2023-02-25T14:24:30;100517.3;;;14.2;64.7
72124;BME280;63818;37.134;-8.548;2023-02-25T14:29:27;100513.9;;;14.2;62.2
72124;BME280;63818;37.134;-8.548;2023-02-25T14:34:33;100507.2;;;14.3;58.8
72124;BME280;63818;37.134;-8.548;2023-02-25T14:39:30;100506.5;;;14.4;59.0
72124;BME280;63818;37.134;-8.548;2023-02-25T14:44:23;100507.2;;;14.4;56.6
72124;BME280;63818;37.134;-8.548;2023-02-25T14:49:15;100534.3;;;14.4;58.4
72124;BME280;63818;37.134;-8.548;2023-02-25T14:59:39;100524.7;;;14.4;56.4
72124;BME280;63818;37.134;-8.548;2023-02-25T15:06:10;100525.3;;;14.2;57.3
72124;BME280;63818;37.134;-8.548;2023-02-25T15:11:13;100533.8;;;14.2;58.7
72124;BME280;63818;37.134;-8.548;2023-02-25T15:23:06;100539.4;;;15.6;55.6
72124;BME280;63818;37.134;-8.548;2023-02-25T15:27:52;100537.2;;;14.9;57.9
72124;BME280;63818;37.134;-8.548;2023-02-25T15:32:55;100546.9;;;14.5;59.0
72124;BME280;63818;37.134;-8.548;2023-02-25T15:38:06;100539.4;;;14.4;60.1
72124;BME280;63818;37.134;-8.548;2023-02-25T15:42:55;100545.1;;;14.3;60.5
72124;BME280;63818;37.134;-8.548;2023-02-25T15:47:42;100547.3;;;14.9;59.5
72124;BME280;63818;37.134;-8.548;2023-02-25T15:52:52;100531.1;;;15.2;58.2
72124;BME280;63818;37.134;-8.548;2023-02-25T15:57:39;100525.5;;;15.4;57.8
72124;BME280;63818;37.134;-8.548;2023-02-25T16:02:38;100528.7;;;15.0;56.5
72124;BME280;63818;37.134;-8.548;2023-02-25T16:07:34;100530.5;;;15.2;56.7
72124;BME280;63818;37.134;-8.548;2023-02-25T16:12:22;100545.5;;;15.2;57.9
72124;BME280;63818;37.134;-8.548;2023-02-25T16:17:14;100546.0;;;15.1;58.0
72124;BME280;63818;37.134;-8.548;2023-02-25T16:22:03;100551.8;;;14.7;59.2
72124;BME280;63818;37.134;-8.548;2023-02-25T16:26:56;100550.1;;;14.8;59.3
72124;BME280;63818;37.134;-8.548;2023-02-25T16:31:48;100554.8;;;14.8;60.0
72124;BME280;63818;37.134;-8.548;2023-02-25T16:36:44;100554.0;;;15.9;58.8
72124;BME280;63818;37.134;-8.548;2023-02-25T16:41:32;100559.0;;;16.2;56.7
72124;BME280;63818;37.134;-8.548;2023-02-25T16:46:20;100558.9;;;16.0;56.9
72124;BME280;63818;37.134;-8.548;2023-02-25T16:51:10;100563.3;;;15.7;56.5
72124;BME280;63818;37.134;-8.548;2023-02-25T16:56:03;100575.9;;;15.3;58.1
72124;BME280;63818;37.134;-8.548;2023-02-25T17:00:52;100577.4;;;15.0;58.6
72124;BME280;63818;37.134;-8.548;2023-02-25T17:05:38;100586.9;;;15.0;58.3
72124;BME280;63818;37.134;-8.548;2023-02-25T17:10:44;100584.0;;;14.8;59.0
72124;BME280;63818;37.134;-8.548;2023-02-25T17:15:34;100605.5;;;14.6;60.3
72124;BME280;63818;37.134;-8.548;2023-02-25T17:20:24;100611.0;;;14.4;60.8
72124;BME280;63818;37.134;-8.548;2023-02-25T17:25:12;100623.5;;;14.2;61.7
72124;BME280;63818;37.134;-8.548;2023-02-25T17:30:03;100629.8;;;14.2;62.0
72124;BME280;63818;37.134;-8.548;2023-02-25T17:34:52;100642.8;;;14.1;63.5
72124;BME280;63818;37.134;-8.548;2023-02-25T17:39:42;100654.4;;;14.0;63.7
72124;BME280;63818;37.134;-8.548;2023-02-25T17:44:45;100650.9;;;14.0;64.4
72124;BME280;63818;37.134;-8.548;2023-02-25T17:49:33;100653.7;;;13.9;65.0
72124;BME280;63818;37.134;-8.548;2023-02-25T17:54:23;100665.3;;;13.9;65.6
72124;BME280;63818;37.134;-8.548;2023-02-25T17:59:31;100665.2;;;13.9;66.0
72124;BME280;63818;37.134;-8.548;2023-02-25T18:04:31;100669.1;;;13.8;66.8
72124;BME280;63818;37.134;-8.548;2023-02-25T18:09:30;100731.6;;;13.7;68.5
72124;BME280;63818;37.134;-8.548;2023-02-25T18:14:26;100726.4;;;13.3;75.9
72124;BME280;63818;37.134;-8.548;2023-02-25T18:19:26;100733.0;;;13.0;79.1
72124;BME280;63818;37.134;-8.548;2023-02-25T18:24:24;100733.0;;;13.0;79.9
72124;BME280;63818;37.134;-8.548;2023-02-25T18:29:10;100734.1;;;12.9;79.9
72124;BME280;63818;37.134;-8.548;2023-02-25T18:33:56;100729.9;;;12.9;79.1
72124;BME280;63818;37.134;-8.548;2023-02-25T18:38:42;100731.0;;;12.7;78.4
72124;BME280;63818;37.134;-8.548;2023-02-25T18:43:28;100738.0;;;12.7;78.6
72124;BME280;63818;37.134;-8.548;2023-02-25T18:48:14;100735.0;;;12.8;78.6
72124;BME280;63818;37.134;-8.548;2023-02-25T18:53:00;100738.1;;;12.8;79.1
72124;BME280;63818;37.134;-8.548;2023-02-25T18:57:47;100712.9;;;12.9;79.8
72124;BME280;63818;37.134;-8.548;2023-02-25T19:02:44;100716.9;;;12.9;79.4
72124;BME280;63818;37.134;-8.548;2023-02-25T19:07:33;100724.5;;;12.9;79.9
72124;BME280;63818;37.134;-8.548;2023-02-25T19:12:21;100711.0;;;12.9;80.2
72124;BME280;63818;37.134;-8.548;2023-02-25T19:17:09;100711.7;;;13.0;80.3
72124;BME280;63818;37.134;-8.548;2023-02-25T19:26:57;100728.8;;;12.8;79.9
72124;BME280;63818;37.134;-8.548;2023-02-25T19:31:43;100736.9;;;12.8;79.8
72124;BME280;63818;37.134;-8.548;2023-02-25T19:36:29;100742.1;;;12.8;80.4
72124;BME280;63818;37.134;-8.548;2023-02-25T19:41:15;100741.3;;;12.7;80.6
72124;BME280;63818;37.134;-8.548;2023-02-25T19:46:06;100753.1;;;12.7;80.8
72124;BME280;63818;37.134;-8.548;2023-02-25T19:50:52;100751.5;;;12.7;81.0
72124;BME280;63818;37.134;-8.548;2023-02-25T19:55:41;100745.4;;;12.8;81.3
72124;BME280;63818;37.134;-8.548;2023-02-25T20:00:27;100742.6;;;12.8;81.9
72124;BME280;63818;37.134;-8.548;2023-02-25T20:05:13;100736.5;;;12.8;81.6
72124;BME280;63818;37.134;-8.548;2023-02-25T20:09:59;100741.5;;;12.8;81.8
72124;BME280;63818;37.134;-8.548;2023-02-25T20:14:45;100743.0;;;12.8;81.8
72124;BME280;63818;37.134;-8.548;2023-02-25T20:19:31;100745.7;;;12.8;81.9
72124;BME280;63818;37.134;-8.548;2023-02-25T20:24:17;100752.4;;;12.8;81.4
72124;BME280;63818;37.134;-8.548;2023-02-25T20:29:04;100753.9;;;12.7;81.2
72124;BME280;63818;37.134;-8.548;2023-02-25T20:33:52;100752.8;;;12.6;81.9
72124;BME280;63818;37.134;-8.548;2023-02-25T20:38:43;100759.1;;;12.6;81.8
72124;BME280;63818;37.134;-8.548;2023-02-25T20:43:32;100762.8;;;12.6;81.5
72124;BME280;63818;37.134;-8.548;2023-02-25T20:48:24;100770.5;;;12.6;81.8
72124;BME280;63818;37.134;-8.548;2023-02-25T20:53:11;100777.4;;;12.6;81.7
72124;BME280;63818;37.134;-8.548;2023-02-25T20:57:57;100762.9;;;12.5;82.2
72124;BME280;63818;37.134;-8.548;2023-02-25T21:02:43;100768.5;;;12.6;82.5
72124;BME280;63818;37.134;-8.548;2023-02-25T21:07:29;100774.5;;;12.6;82.6
72124;BME280;63818;37.134;-8.548;2023-02-25T21:12:16;100772.7;;;12.7;82.7
72124;BME280;63818;37.134;-8.548;2023-02-25T21:17:02;100780.7;;;12.7;82.9
72124;BME280;63818;37.134;-8.548;2023-02-25T21:21:48;100769.1;;;12.7;82.9
72124;BME280;63818;37.134;-8.548;2023-02-25T21:26:34;100771.5;;;12.7;83.1
72124;BME280;63818;37.134;-8.548;2023-02-25T21:31:20;100777.0;;;12.8;83.3
72124;BME280;63818;37.134;-8.548;2023-02-25T21:36:10;100770.0;;;12.8;83.2
72124;BME280;63818;37.134;-8.548;2023-02-25T21:40:56;100771.1;;;12.7;83.1
72124;BME280;63818;37.134;-8.548;2023-02-25T21:45:56;100767.7;;;12.7;82.7
72124;BME280;63818;37.134;-8.548;2023-02-25T21:50:45;100769.2;;;12.7;82.9
72124;BME280;63818;37.134;-8.548;2023-02-25T21:55:34;100771.1;;;12.7;82.6
72124;BME280;63818;37.134;-8.548;2023-02-25T22:00:20;100773.5;;;12.8;82.4
72124;BME280;63818;37.134;-8.548;2023-02-25T22:05:07;100782.4;;;12.8;82.7
72124;BME280;63818;37.134;-8.548;2023-02-25T22:09:53;100780.3;;;12.7;82.8
72124;BME280;63818;37.134;-8.548;2023-02-25T22:14:39;100781.4;;;12.7;82.8
72124;BME280;63818;37.134;-8.548;2023-02-25T22:19:25;100782.1;;;12.7;83.0
72124;BME280;63818;37.134;-8.548;2023-02-25T22:24:11;100786.2;;;12.7;83.1
72124;BME280;63818;37.134;-8.548;2023-02-25T22:29:00;100778.1;;;12.7;83.4
72124;BME280;63818;37.134;-8.548;2023-02-25T22:33:52;100786.9;;;12.6;83.5
72124;BME280;63818;37.134;-8.548;2023-02-25T22:38:40;100788.0;;;12.6;83.5
72124;BME280;63818;37.134;-8.548;2023-02-25T22:43:34;100798.0;;;12.6;83.5
72124;BME280;63818;37.134;-8.548;2023-02-25T22:48:27;100798.3;;;12.6;83.7
72124;BME280;63818;37.134;-8.548;2023-02-25T22:53:13;100788.6;;;12.6;83.3
72124;BME280;63818;37.134;-8.548;2023-02-25T22:58:02;100791.1;;;12.6;83.3
72124;BME280;63818;37.134;-8.548;2023-02-25T23:02:48;100784.6;;;12.6;83.4
72124;BME280;63818;37.134;-8.548;2023-02-25T23:07:38;100776.2;;;12.6;83.5
72124;BME280;63818;37.134;-8.548;2023-02-25T23:12:24;100777.0;;;12.6;83.3
72124;BME280;63818;37.134;-8.548;2023-02-25T23:17:10;100770.0;;;12.6;83.3
72124;BME280;63818;37.134;-8.548;2023-02-25T23:21:58;100779.3;;;12.6;83.3
72124;BME280;63818;37.134;-8.548;2023-02-25T23:26:46;100778.8;;;12.5;83.3
72124;BME280;63818;37.134;-8.548;2023-02-25T23:31:36;100772.9;;;12.5;83.2
72124;BME280;63818;37.134;-8.548;2023-02-25T23:36:23;100778.9;;;12.5;82.9
72124;BME280;63818;37.134;-8.548;2023-02-25T23:41:11;100783.1;;;12.5;83.0
72124;BME280;63818;37.134;-8.548;2023-02-25T23:46:00;100790.7;;;12.4;82.7
72124;BME280;63818;37.134;-8.548;2023-02-25T23:50:46;100794.8;;;12.4;82.6
72124;BME280;63818;37.134;-8.548;2023-02-25T23:55:36;100799.5;;;12.4;83.1
